sensor_id;sensor_type;location;lat;lon;timestamp;temperature;humidity
29237;DHT22;16266;50.866;4.398;2023-09-19T00:02:02;15.10;99.90
29237;DHT22;16266;50.866;4.398;2023-09-19T00:04:34;15.10;99.90
29237;DHT22;16266;50.866;4.398;2023-09-19T00:07:00;15.00;99.90
29237;DHT22;16266;50.866;4.398;2023-09-19T00:09:28;15.10;99.90
29237;DHT22;16266;50.866;4.398;2023-09-19T00:11:54;15.10;99.90
29237;DHT22;16266;50.866;4.398;2023-09-19T00:14:20;15.20;99.90
29237;DHT22;16266;50.866;4.398;2023-09-19T00:16:45;15.20;99.90
29237;DHT22;16266;50.866;4.398;2023-09-19T00:19:12;15.20;99.90
29237;DHT22;16266;50.866;4.398;2023-09-19T00:21:38;15.10;99.90
29237;DHT22;16266;50.866;4.398;2023-09-19T00:24:06;15.10;99.90
29237;DHT22;16266;50.866;4.398;2023-09-19T00:26:32;15.10;99.90
29237;DHT22;16266;50.866;4.398;2023-09-19T00:29:00;15.20;99.90
29237;DHT22;16266;50.866;4.398;2023-09-19T00:31:31;15.20;99.90
29237;DHT22;16266;50.866;4.398;2023-09-19T00:33:57;15.10;99.90
29237;DHT22;16266;50.866;4.398;2023-09-19T00:36:25;15.10;99.90
29237;DHT22;16266;50.866;4.398;2023-09-19T00:38:51;15.10;99.90
29237;DHT22;16266;50.866;4.398;2023-09-19T00:41:17;15.10;99.90
29237;DHT22;16266;50.866;4.398;2023-09-19T00:43:43;15.10;99.90
29237;DHT22;16266;50.866;4.398;2023-09-19T00:46:08;15.10;99.90
29237;DHT22;16266;50.866;4.398;2023-09-19T00:48:40;15.10;99.90
29237;DHT22;16266;50.866;4.398;2023-09-19T00:51:06;15.10;99.90
29237;DHT22;16266;50.866;4.398;2023-09-19T00:53:32;15.00;99.90
29237;DHT22;16266;50.866;4.398;2023-09-19T00:55:59;15.00;99.90
29237;DHT22;16266;50.866;4.398;2023-09-19T00:58:25;15.00;99.90
29237;DHT22;16266;50.866;4.398;2023-09-19T01:00:51;15.00;99.90
29237;DHT22;16266;50.866;4.398;2023-09-19T01:03:18;15.00;99.90
29237;DHT22;16266;50.866;4.398;2023-09-19T01:05:44;15.00;99.90
29237;DHT22;16266;50.866;4.398;2023-09-19T01:08:10;15.00;99.90
29237;DHT22;16266;50.866;4.398;2023-09-19T01:11:20;15.00;99.90
29237;DHT22;16266;50.866;4.398;2023-09-19T01:22:07;14.90;99.90
29237;DHT22;16266;50.866;4.398;2023-09-19T01:29:47;14.90;99.90
29237;DHT22;16266;50.866;4.398;2023-09-19T01:32:19;14.80;99.90
29237;DHT22;16266;50.866;4.398;2023-09-19T01:34:56;14.80;99.90
29237;DHT22;16266;50.866;4.398;2023-09-19T01:37:29;14.80;99.90
29237;DHT22;16266;50.866;4.398;2023-09-19T01:40:00;14.80;99.90
29237;DHT22;16266;50.866;4.398;2023-09-19T01:48:49;14.70;99.90
29237;DHT22;16266;50.866;4.398;2023-09-19T01:54:01;14.80;99.90
29237;DHT22;16266;50.866;4.398;2023-09-19T01:56:36;14.80;99.90
29237;DHT22;16266;50.866;4.398;2023-09-19T01:59:07;14.70;99.90
29237;DHT22;16266;50.866;4.398;2023-09-19T02:01:37;14.70;99.90
29237;DHT22;16266;50.866;4.398;2023-09-19T02:04:03;14.70;99.90
29237;DHT22;16266;50.866;4.398;2023-09-19T02:06:29;14.70;99.90
29237;DHT22;16266;50.866;4.398;2023-09-19T02:08:55;14.70;99.90
29237;DHT22;16266;50.866;4.398;2023-09-19T02:11:21;14.70;99.90
29237;DHT22;16266;50.866;4.398;2023-09-19T02:13:47;14.70;99.90
29237;DHT22;16266;50.866;4.398;2023-09-19T02:16:13;14.80;99.90
29237;DHT22;16266;50.866;4.398;2023-09-19T02:18:42;14.80;99.90
29237;DHT22;16266;50.866;4.398;2023-09-19T02:21:08;15.00;99.90
29237;DHT22;16266;50.866;4.398;2023-09-19T02:23:36;15.10;99.90
29237;DHT22;16266;50.866;4.398;2023-09-19T02:26:02;15.20;99.90
29237;DHT22;16266;50.866;4.398;2023-09-19T02:28:29;15.20;99.90
29237;DHT22;16266;50.866;4.398;2023-09-19T02:30:58;15.40;99.90
29237;DHT22;16266;50.866;4.398;2023-09-19T02:33:24;15.40;99.90
29237;DHT22;16266;50.866;4.398;2023-09-19T02:35:55;15.40;99.90
29237;DHT22;16266;50.866;4.398;2023-09-19T02:38:23;15.50;99.90
29237;DHT22;16266;50.866;4.398;2023-09-19T02:40:50;15.50;99.90
29237;DHT22;16266;50.866;4.398;2023-09-19T02:43:16;15.50;99.90
29237;DHT22;16266;50.866;4.398;2023-09-19T02:45:42;15.60;99.90
29237;DHT22;16266;50.866;4.398;2023-09-19T02:48:08;15.60;99.90
29237;DHT22;16266;50.866;4.398;2023-09-19T02:50:34;15.60;99.90
29237;DHT22;16266;50.866;4.398;2023-09-19T02:53:00;15.60;99.90
29237;DHT22;16266;50.866;4.398;2023-09-19T02:55:26;15.70;99.90
29237;DHT22;16266;50.866;4.398;2023-09-19T02:57:53;15.70;99.90
29237;DHT22;16266;50.866;4.398;2023-09-19T03:00:22;15.60;99.90
29237;DHT22;16266;50.866;4.398;2023-09-19T03:02:54;15.50;99.90
29237;DHT22;16266;50.866;4.398;2023-09-19T03:05:21;15.50;99.90
29237;DHT22;16266;50.866;4.398;2023-09-19T03:07:47;15.50;99.90
29237;DHT22;16266;50.866;4.398;2023-09-19T03:10:19;15.40;99.90
29237;DHT22;16266;50.866;4.398;2023-09-19T03:12:46;15.30;99.90
29237;DHT22;16266;50.866;4.398;2023-09-19T03:15:13;15.30;99.90
29237;DHT22;16266;50.866;4.398;2023-09-19T03:17:45;15.30;99.90
29237;DHT22;16266;50.866;4.398;2023-09-19T03:20:11;15.30;99.90
29237;DHT22;16266;50.866;4.398;2023-09-19T03:22:39;15.40;99.90
29237;DHT22;16266;50.866;4.398;2023-09-19T03:25:06;15.40;99.90
29237;DHT22;16266;50.866;4.398;2023-09-19T03:27:36;15.40;99.90
29237;DHT22;16266;50.866;4.398;2023-09-19T03:30:04;15.30;99.90
29237;DHT22;16266;50.866;4.398;2023-09-19T03:32:48;15.30;99.90
29237;DHT22;16266;50.866;4.398;2023-09-19T03:35:16;15.10;99.90
29237;DHT22;16266;50.866;4.398;2023-09-19T03:37:42;14.90;99.90
29237;DHT22;16266;50.866;4.398;2023-09-19T03:40:09;14.80;99.90
29237;DHT22;16266;50.866;4.398;2023-09-19T03:42:38;14.70;99.90
29237;DHT22;16266;50.866;4.398;2023-09-19T03:45:04;14.70;99.90
29237;DHT22;16266;50.866;4.398;2023-09-19T03:47:31;14.60;99.90
29237;DHT22;16266;50.866;4.398;2023-09-19T03:49:57;14.50;99.90
29237;DHT22;16266;50.866;4.398;2023-09-19T03:52:23;14.40;99.90
29237;DHT22;16266;50.866;4.398;2023-09-19T03:54:50;14.20;99.90
29237;DHT22;16266;50.866;4.398;2023-09-19T03:57:16;14.20;99.90
29237;DHT22;16266;50.866;4.398;2023-09-19T03:59:46;14.10;99.90
29237;DHT22;16266;50.866;4.398;2023-09-19T04:02:11;14.10;99.90
29237;DHT22;16266;50.866;4.398;2023-09-19T04:04:51;14.00;99.90
29237;DHT22;16266;50.866;4.398;2023-09-19T04:07:17;14.00;99.90
29237;DHT22;16266;50.866;4.398;2023-09-19T04:09:44;13.90;99.90
29237;DHT22;16266;50.866;4.398;2023-09-19T04:12:11;13.90;99.90
29237;DHT22;16266;50.866;4.398;2023-09-19T04:14:37;13.90;99.90
29237;DHT22;16266;50.866;4.398;2023-09-19T04:17:04;13.90;99.90
29237;DHT22;16266;50.866;4.398;2023-09-19T04:19:30;14.00;99.90
29237;DHT22;16266;50.866;4.398;2023-09-19T04:21:56;14.00;99.90
29237;DHT22;16266;50.866;4.398;2023-09-19T04:24:22;13.90;99.90
29237;DHT22;16266;50.866;4.398;2023-09-19T04:26:48;13.90;99.90
29237;DHT22;16266;50.866;4.398;2023-09-19T04:29:13;14.00;99.90
29237;DHT22;16266;50.866;4.398;2023-09-19T04:31:40;14.00;99.90
29237;DHT22;16266;50.866;4.398;2023-09-19T04:34:06;13.90;99.90
29237;DHT22;16266;50.866;4.398;2023-09-19T04:36:33;14.00;99.90
29237;DHT22;16266;50.866;4.398;2023-09-19T04:38:59;14.00;99.90
29237;DHT22;16266;50.866;4.398;2023-09-19T04:41:24;14.00;99.90
29237;DHT22;16266;50.866;4.398;2023-09-19T04:43:50;14.00;99.90
29237;DHT22;16266;50.866;4.398;2023-09-19T04:46:16;13.90;99.90
29237;DHT22;16266;50.866;4.398;2023-09-19T04:48:43;14.00;99.90
29237;DHT22;16266;50.866;4.398;2023-09-19T04:51:09;14.00;99.90
29237;DHT22;16266;50.866;4.398;2023-09-19T04:53:36;14.00;99.90
29237;DHT22;16266;50.866;4.398;2023-09-19T04:56:02;14.00;99.90
29237;DHT22;16266;50.866;4.398;2023-09-19T04:58:29;14.00;99.90
29237;DHT22;16266;50.866;4.398;2023-09-19T05:00:55;14.00;99.90
29237;DHT22;16266;50.866;4.398;2023-09-19T05:03:21;14.00;99.90
29237;DHT22;16266;50.866;4.398;2023-09-19T05:05:47;14.00;99.90
29237;DHT22;16266;50.866;4.398;2023-09-19T05:08:14;13.90;99.90
29237;DHT22;16266;50.866;4.398;2023-09-19T05:10:40;13.90;99.90
29237;DHT22;16266;50.866;4.398;2023-09-19T05:13:06;13.90;99.90
29237;DHT22;16266;50.866;4.398;2023-09-19T05:15:35;13.90;99.90
29237;DHT22;16266;50.866;4.398;2023-09-19T05:18:02;14.00;99.90
29237;DHT22;16266;50.866;4.398;2023-09-19T05:20:28;14.00;99.90
29237;DHT22;16266;50.866;4.398;2023-09-19T05:23:02;14.10;99.90
29237;DHT22;16266;50.866;4.398;2023-09-19T05:25:32;14.10;99.90
29237;DHT22;16266;50.866;4.398;2023-09-19T05:28:01;14.10;99.90
29237;DHT22;16266;50.866;4.398;2023-09-19T05:30:29;14.10;99.90
29237;DHT22;16266;50.866;4.398;2023-09-19T05:32:55;14.10;99.90
29237;DHT22;16266;50.866;4.398;2023-09-19T05:35:22;14.10;99.90
29237;DHT22;16266;50.866;4.398;2023-09-19T05:37:50;14.20;99.90
29237;DHT22;16266;50.866;4.398;2023-09-19T05:40:17;14.20;99.90
29237;DHT22;16266;50.866;4.398;2023-09-19T05:42:42;14.30;99.90
29237;DHT22;16266;50.866;4.398;2023-09-19T05:45:10;14.40;99.90
29237;DHT22;16266;50.866;4.398;2023-09-19T05:47:41;14.50;99.90
29237;DHT22;16266;50.866;4.398;2023-09-19T05:50:11;14.50;99.90
29237;DHT22;16266;50.866;4.398;2023-09-19T05:52:40;14.60;99.90
29237;DHT22;16266;50.866;4.398;2023-09-19T05:55:08;14.60;99.90
29237;DHT22;16266;50.866;4.398;2023-09-19T05:57:37;14.60;99.90
29237;DHT22;16266;50.866;4.398;2023-09-19T06:00:08;14.70;99.90
29237;DHT22;16266;50.866;4.398;2023-09-19T06:02:37;14.70;99.90
29237;DHT22;16266;50.866;4.398;2023-09-19T06:05:05;14.80;99.90
29237;DHT22;16266;50.866;4.398;2023-09-19T06:07:32;14.80;99.90
29237;DHT22;16266;50.866;4.398;2023-09-19T06:10:05;14.90;99.90
29237;DHT22;16266;50.866;4.398;2023-09-19T06:12:43;14.90;99.90
29237;DHT22;16266;50.866;4.398;2023-09-19T06:15:10;15.00;99.90
29237;DHT22;16266;50.866;4.398;2023-09-19T06:17:50;15.10;99.90
29237;DHT22;16266;50.866;4.398;2023-09-19T06:20:16;15.30;99.90
29237;DHT22;16266;50.866;4.398;2023-09-19T06:22:43;15.40;99.90
29237;DHT22;16266;50.866;4.398;2023-09-19T06:25:13;15.50;99.90
29237;DHT22;16266;50.866;4.398;2023-09-19T06:27:42;15.70;99.90
29237;DHT22;16266;50.866;4.398;2023-09-19T06:30:10;15.80;99.90
29237;DHT22;16266;50.866;4.398;2023-09-19T06:32:40;16.00;99.90
29237;DHT22;16266;50.866;4.398;2023-09-19T06:35:10;16.10;99.90
29237;DHT22;16266;50.866;4.398;2023-09-19T06:37:37;16.20;99.90
29237;DHT22;16266;50.866;4.398;2023-09-19T06:40:12;16.20;99.90
29237;DHT22;16266;50.866;4.398;2023-09-19T06:42:43;16.30;99.90
29237;DHT22;16266;50.866;4.398;2023-09-19T06:45:11;16.40;99.90
29237;DHT22;16266;50.866;4.398;2023-09-19T06:47:39;16.60;99.90
29237;DHT22;16266;50.866;4.398;2023-09-19T06:50:05;16.50;99.90
29237;DHT22;16266;50.866;4.398;2023-09-19T06:52:34;16.70;99.90
29237;DHT22;16266;50.866;4.398;2023-09-19T06:55:00;16.80;99.90
29237;DHT22;16266;50.866;4.398;2023-09-19T06:57:28;16.80;99.90
29237;DHT22;16266;50.866;4.398;2023-09-19T06:59:56;16.90;99.90
29237;DHT22;16266;50.866;4.398;2023-09-19T07:02:21;17.10;99.90
29237;DHT22;16266;50.866;4.398;2023-09-19T07:04:47;17.20;99.90
29237;DHT22;16266;50.866;4.398;2023-09-19T07:07:13;17.40;99.90
29237;DHT22;16266;50.866;4.398;2023-09-19T07:09:39;17.70;99.90
29237;DHT22;16266;50.866;4.398;2023-09-19T07:12:05;17.70;99.90
29237;DHT22;16266;50.866;4.398;2023-09-19T07:14:31;17.80;99.90
29237;DHT22;16266;50.866;4.398;2023-09-19T07:16:58;18.00;99.90
29237;DHT22;16266;50.866;4.398;2023-09-19T07:19:26;18.50;99.90
29237;DHT22;16266;50.866;4.398;2023-09-19T07:21:53;18.80;99.90
29237;DHT22;16266;50.866;4.398;2023-09-19T07:24:19;19.10;99.90
29237;DHT22;16266;50.866;4.398;2023-09-19T07:26:47;19.60;99.90
29237;DHT22;16266;50.866;4.398;2023-09-19T07:29:13;20.00;99.90
29237;DHT22;16266;50.866;4.398;2023-09-19T07:31:39;20.50;99.90
29237;DHT22;16266;50.866;4.398;2023-09-19T07:34:05;20.70;99.90
29237;DHT22;16266;50.866;4.398;2023-09-19T07:36:34;21.10;99.90
29237;DHT22;16266;50.866;4.398;2023-09-19T07:39:00;21.20;99.90
29237;DHT22;16266;50.866;4.398;2023-09-19T07:41:25;21.50;99.90
29237;DHT22;16266;50.866;4.398;2023-09-19T07:43:51;21.90;99.90
29237;DHT22;16266;50.866;4.398;2023-09-19T07:46:17;21.80;99.90
29237;DHT22;16266;50.866;4.398;2023-09-19T07:48:44;22.10;99.90
29237;DHT22;16266;50.866;4.398;2023-09-19T07:51:14;22.30;99.90
29237;DHT22;16266;50.866;4.398;2023-09-19T07:53:41;22.50;99.90
29237;DHT22;16266;50.866;4.398;2023-09-19T07:56:09;22.40;99.90
29237;DHT22;16266;50.866;4.398;2023-09-19T07:58:35;22.40;99.90
29237;DHT22;16266;50.866;4.398;2023-09-19T08:01:07;22.50;99.90
29237;DHT22;16266;50.866;4.398;2023-09-19T08:03:33;22.60;99.90
29237;DHT22;16266;50.866;4.398;2023-09-19T08:06:00;22.50;99.90
29237;DHT22;16266;50.866;4.398;2023-09-19T08:08:26;22.60;99.90
29237;DHT22;16266;50.866;4.398;2023-09-19T08:10:56;22.60;99.90
29237;DHT22;16266;50.866;4.398;2023-09-19T08:13:25;22.90;99.90
29237;DHT22;16266;50.866;4.398;2023-09-19T08:15:52;22.70;99.90
29237;DHT22;16266;50.866;4.398;2023-09-19T08:18:20;22.90;99.90
29237;DHT22;16266;50.866;4.398;2023-09-19T08:20:50;23.20;99.60
29237;DHT22;16266;50.866;4.398;2023-09-19T08:23:16;23.20;99.60
29237;DHT22;16266;50.866;4.398;2023-09-19T08:25:46;23.60;97.30
29237;DHT22;16266;50.866;4.398;2023-09-19T08:28:11;24.10;95.40
29237;DHT22;16266;50.866;4.398;2023-09-19T08:30:39;24.40;92.10
29237;DHT22;16266;50.866;4.398;2023-09-19T08:33:06;24.60;89.50
29237;DHT22;16266;50.866;4.398;2023-09-19T08:35:33;24.50;90.30
29237;DHT22;16266;50.866;4.398;2023-09-19T08:37:59;25.00;89.30
29237;DHT22;16266;50.866;4.398;2023-09-19T08:40:30;25.40;80.70
29237;DHT22;16266;50.866;4.398;2023-09-19T08:42:59;25.60;78.70
29237;DHT22;16266;50.866;4.398;2023-09-19T08:45:26;25.30;75.50
29237;DHT22;16266;50.866;4.398;2023-09-19T08:48:23;24.70;80.20
29237;DHT22;16266;50.866;4.398;2023-09-19T08:52:07;25.10;75.80
29237;DHT22;16266;50.866;4.398;2023-09-19T08:54:06;25.20;76.20
29237;DHT22;16266;50.866;4.398;2023-09-19T08:56:33;25.60;70.40
29237;DHT22;16266;50.866;4.398;2023-09-19T08:59:06;25.70;64.10
29237;DHT22;16266;50.866;4.398;2023-09-19T09:01:35;25.80;61.40
29237;DHT22;16266;50.866;4.398;2023-09-19T09:04:02;25.60;61.40
29237;DHT22;16266;50.866;4.398;2023-09-19T09:06:28;25.30;61.80
29237;DHT22;16266;50.866;4.398;2023-09-19T09:08:55;25.10;62.50
29237;DHT22;16266;50.866;4.398;2023-09-19T09:11:22;25.70;62.90
29237;DHT22;16266;50.866;4.398;2023-09-19T09:13:56;25.90;57.00
29237;DHT22;16266;50.866;4.398;2023-09-19T09:16:30;26.10;53.70
29237;DHT22;16266;50.866;4.398;2023-09-19T09:18:56;26.30;54.20
29237;DHT22;16266;50.866;4.398;2023-09-19T09:21:25;25.80;55.30
29237;DHT22;16266;50.866;4.398;2023-09-19T09:23:51;25.70;55.50
29237;DHT22;16266;50.866;4.398;2023-09-19T09:26:17;25.40;56.80
29237;DHT22;16266;50.866;4.398;2023-09-19T09:28:50;25.70;57.70
29237;DHT22;16266;50.866;4.398;2023-09-19T09:31:24;24.90;55.50
29237;DHT22;16266;50.866;4.398;2023-09-19T09:33:54;24.70;63.00
29237;DHT22;16266;50.866;4.398;2023-09-19T09:36:37;24.70;59.20
29237;DHT22;16266;50.866;4.398;2023-09-19T09:39:04;24.30;62.30
29237;DHT22;16266;50.866;4.398;2023-09-19T09:41:50;24.20;61.70
29237;DHT22;16266;50.866;4.398;2023-09-19T09:44:17;23.80;64.60
29237;DHT22;16266;50.866;4.398;2023-09-19T09:46:46;23.90;66.80
29237;DHT22;16266;50.866;4.398;2023-09-19T09:49:25;23.80;64.30
29237;DHT22;16266;50.866;4.398;2023-09-19T09:52:03;23.80;65.40
29237;DHT22;16266;50.866;4.398;2023-09-19T09:54:59;23.80;65.70
29237;DHT22;16266;50.866;4.398;2023-09-19T09:57:26;23.00;70.90
29237;DHT22;16266;50.866;4.398;2023-09-19T09:59:57;22.80;73.70
29237;DHT22;16266;50.866;4.398;2023-09-19T10:02:41;22.80;76.50
29237;DHT22;16266;50.866;4.398;2023-09-19T10:05:15;23.00;79.90
29237;DHT22;16266;50.866;4.398;2023-09-19T10:07:55;23.10;75.50
29237;DHT22;16266;50.866;4.398;2023-09-19T10:10:38;23.00;76.70
29237;DHT22;16266;50.866;4.398;2023-09-19T10:13:05;23.20;75.20
29237;DHT22;16266;50.866;4.398;2023-09-19T10:15:34;23.30;75.00
29237;DHT22;16266;50.866;4.398;2023-09-19T10:18:05;23.60;72.50
29237;DHT22;16266;50.866;4.398;2023-09-19T10:20:45;24.30;67.20
29237;DHT22;16266;50.866;4.398;2023-09-19T10:23:12;25.50;57.50
29237;DHT22;16266;50.866;4.398;2023-09-19T10:25:43;26.00;53.00
29237;DHT22;16266;50.866;4.398;2023-09-19T10:28:13;26.00;50.40
29237;DHT22;16266;50.866;4.398;2023-09-19T10:30:50;26.50;48.50
29237;DHT22;16266;50.866;4.398;2023-09-19T10:33:18;26.80;45.50
29237;DHT22;16266;50.866;4.398;2023-09-19T10:35:48;27.60;41.40
29237;DHT22;16266;50.866;4.398;2023-09-19T10:38:19;27.90;35.70
29237;DHT22;16266;50.866;4.398;2023-09-19T10:40:49;27.60;36.40
29237;DHT22;16266;50.866;4.398;2023-09-19T10:43:17;27.70;35.40
29237;DHT22;16266;50.866;4.398;2023-09-19T10:45:44;27.60;33.30
29237;DHT22;16266;50.866;4.398;2023-09-19T10:48:10;27.00;36.10
29237;DHT22;16266;50.866;4.398;2023-09-19T10:50:51;27.40;36.80
29237;DHT22;16266;50.866;4.398;2023-09-19T10:53:20;27.30;34.60
29237;DHT22;16266;50.866;4.398;2023-09-19T10:55:59;27.50;36.40
29237;DHT22;16266;50.866;4.398;2023-09-19T10:58:31;28.00;32.50
29237;DHT22;16266;50.866;4.398;2023-09-19T11:01:04;27.90;32.50
29237;DHT22;16266;50.866;4.398;2023-09-19T11:03:41;27.90;32.10
29237;DHT22;16266;50.866;4.398;2023-09-19T11:06:19;27.70;35.60
29237;DHT22;16266;50.866;4.398;2023-09-19T11:09:02;27.80;32.20
29237;DHT22;16266;50.866;4.398;2023-09-19T11:22:23;29.30;26.30
29237;DHT22;16266;50.866;4.398;2023-09-19T11:24:49;28.30;26.90
29237;DHT22;16266;50.866;4.398;2023-09-19T11:27:17;27.90;29.90
29237;DHT22;16266;50.866;4.398;2023-09-19T11:29:44;28.20;29.80
29237;DHT22;16266;50.866;4.398;2023-09-19T11:32:10;27.80;29.10
29237;DHT22;16266;50.866;4.398;2023-09-19T11:40:10;25.50;44.80
29237;DHT22;16266;50.866;4.398;2023-09-19T11:42:48;25.30;45.70
29237;DHT22;16266;50.866;4.398;2023-09-19T11:48:23;25.20;49.50
29237;DHT22;16266;50.866;4.398;2023-09-19T11:50:52;25.60;49.90
29237;DHT22;16266;50.866;4.398;2023-09-19T11:53:19;25.50;50.70
29237;DHT22;16266;50.866;4.398;2023-09-19T11:55:45;24.80;53.60
29237;DHT22;16266;50.866;4.398;2023-09-19T11:58:20;24.60;55.40
29237;DHT22;16266;50.866;4.398;2023-09-19T12:00:54;24.10;61.40
29237;DHT22;16266;50.866;4.398;2023-09-19T12:03:29;24.90;58.30
29237;DHT22;16266;50.866;4.398;2023-09-19T12:05:56;25.30;53.90
29237;DHT22;16266;50.866;4.398;2023-09-19T12:08:26;24.90;55.70
29237;DHT22;16266;50.866;4.398;2023-09-19T12:10:53;24.80;55.50
29237;DHT22;16266;50.866;4.398;2023-09-19T12:13:20;24.50;59.10
29237;DHT22;16266;50.866;4.398;2023-09-19T12:15:46;24.40;59.60
29237;DHT22;16266;50.866;4.398;2023-09-19T12:18:28;24.00;63.00
29237;DHT22;16266;50.866;4.398;2023-09-19T12:20:55;24.00;64.20
29237;DHT22;16266;50.866;4.398;2023-09-19T12:23:23;23.80;66.50
29237;DHT22;16266;50.866;4.398;2023-09-19T12:25:49;23.70;69.70
29237;DHT22;16266;50.866;4.398;2023-09-19T12:28:18;23.80;70.30
29237;DHT22;16266;50.866;4.398;2023-09-19T12:30:44;23.90;69.50
29237;DHT22;16266;50.866;4.398;2023-09-19T12:33:20;24.00;67.80
29237;DHT22;16266;50.866;4.398;2023-09-19T12:35:50;24.00;66.30
29237;DHT22;16266;50.866;4.398;2023-09-19T12:38:28;23.70;69.50
29237;DHT22;16266;50.866;4.398;2023-09-19T12:40:57;23.70;70.90
29237;DHT22;16266;50.866;4.398;2023-09-19T12:43:30;23.60;70.40
29237;DHT22;16266;50.866;4.398;2023-09-19T12:49:19;23.80;71.00
29237;DHT22;16266;50.866;4.398;2023-09-19T12:51:48;23.90;72.50
29237;DHT22;16266;50.866;4.398;2023-09-19T12:54:14;23.60;74.30
29237;DHT22;16266;50.866;4.398;2023-09-19T12:56:44;24.00;71.00
29237;DHT22;16266;50.866;4.398;2023-09-19T12:59:14;24.10;71.90
29237;DHT22;16266;50.866;4.398;2023-09-19T13:01:41;23.80;72.70
29237;DHT22;16266;50.866;4.398;2023-09-19T13:04:16;23.50;77.10
29237;DHT22;16266;50.866;4.398;2023-09-19T13:06:50;23.60;77.10
29237;DHT22;16266;50.866;4.398;2023-09-19T13:09:16;23.30;78.70
29237;DHT22;16266;50.866;4.398;2023-09-19T13:11:44;23.40;80.00
29237;DHT22;16266;50.866;4.398;2023-09-19T13:14:24;23.50;80.90
29237;DHT22;16266;50.866;4.398;2023-09-19T13:17:08;23.80;78.50
29237;DHT22;16266;50.866;4.398;2023-09-19T13:19:48;23.60;79.40
29237;DHT22;16266;50.866;4.398;2023-09-19T13:22:40;23.50;79.40
29237;DHT22;16266;50.866;4.398;2023-09-19T13:25:26;23.50;80.50
29237;DHT22;16266;50.866;4.398;2023-09-19T13:27:56;23.70;77.30
29237;DHT22;16266;50.866;4.398;2023-09-19T13:30:24;23.80;79.30
29237;DHT22;16266;50.866;4.398;2023-09-19T13:32:51;23.90;77.90
29237;DHT22;16266;50.866;4.398;2023-09-19T13:35:18;23.90;75.40
29237;DHT22;16266;50.866;4.398;2023-09-19T13:37:44;23.90;76.30
29237;DHT22;16266;50.866;4.398;2023-09-19T13:40:14;24.10;72.20
29237;DHT22;16266;50.866;4.398;2023-09-19T13:42:41;24.00;73.60
29237;DHT22;16266;50.866;4.398;2023-09-19T13:45:07;24.20;74.80
29237;DHT22;16266;50.866;4.398;2023-09-19T13:47:33;24.40;70.80
29237;DHT22;16266;50.866;4.398;2023-09-19T13:50:01;24.00;72.00
29237;DHT22;16266;50.866;4.398;2023-09-19T13:52:29;23.60;75.50
29237;DHT22;16266;50.866;4.398;2023-09-19T13:54:56;23.30;80.40
29237;DHT22;16266;50.866;4.398;2023-09-19T13:57:23;23.30;82.40
29237;DHT22;16266;50.866;4.398;2023-09-19T13:59:49;23.40;82.30
29237;DHT22;16266;50.866;4.398;2023-09-19T14:02:14;23.30;81.20
29237;DHT22;16266;50.866;4.398;2023-09-19T14:04:44;23.40;83.10
29237;DHT22;16266;50.866;4.398;2023-09-19T14:07:10;23.30;83.60
29237;DHT22;16266;50.866;4.398;2023-09-19T14:09:36;23.10;85.40
29237;DHT22;16266;50.866;4.398;2023-09-19T14:12:02;23.00;90.00
29237;DHT22;16266;50.866;4.398;2023-09-19T14:14:28;22.80;90.70
29237;DHT22;16266;50.866;4.398;2023-09-19T14:16:54;22.90;91.10
29237;DHT22;16266;50.866;4.398;2023-09-19T14:19:20;22.80;91.30
29237;DHT22;16266;50.866;4.398;2023-09-19T14:21:46;22.60;91.90
29237;DHT22;16266;50.866;4.398;2023-09-19T14:24:19;22.70;91.70
29237;DHT22;16266;50.866;4.398;2023-09-19T14:26:46;22.80;91.30
29237;DHT22;16266;50.866;4.398;2023-09-19T14:29:11;22.80;91.50
29237;DHT22;16266;50.866;4.398;2023-09-19T14:31:38;22.80;91.60
29237;DHT22;16266;50.866;4.398;2023-09-19T14:34:05;23.00;91.60
29237;DHT22;16266;50.866;4.398;2023-09-19T14:36:31;23.10;90.40
29237;DHT22;16266;50.866;4.398;2023-09-19T14:38:57;23.10;91.70
29237;DHT22;16266;50.866;4.398;2023-09-19T14:41:23;23.00;90.20
29237;DHT22;16266;50.866;4.398;2023-09-19T14:43:53;22.80;92.20
29237;DHT22;16266;50.866;4.398;2023-09-19T14:46:19;22.60;93.40
29237;DHT22;16266;50.866;4.398;2023-09-19T14:48:52;22.50;94.50
29237;DHT22;16266;50.866;4.398;2023-09-19T14:51:19;22.50;95.20
29237;DHT22;16266;50.866;4.398;2023-09-19T14:53:45;22.90;94.60
29237;DHT22;16266;50.866;4.398;2023-09-19T14:56:13;22.90;92.20
29237;DHT22;16266;50.866;4.398;2023-09-19T14:58:45;22.90;92.20
29237;DHT22;16266;50.866;4.398;2023-09-19T15:01:13;22.70;93.40
29237;DHT22;16266;50.866;4.398;2023-09-19T15:03:41;22.30;94.40
29237;DHT22;16266;50.866;4.398;2023-09-19T15:06:12;22.20;95.70
29237;DHT22;16266;50.866;4.398;2023-09-19T15:08:43;22.10;97.20
29237;DHT22;16266;50.866;4.398;2023-09-19T15:11:18;22.10;97.30
29237;DHT22;16266;50.866;4.398;2023-09-19T15:13:46;22.20;96.80
29237;DHT22;16266;50.866;4.398;2023-09-19T15:16:12;22.50;97.00
29237;DHT22;16266;50.866;4.398;2023-09-19T15:18:41;22.50;95.70
29237;DHT22;16266;50.866;4.398;2023-09-19T15:21:11;22.40;96.00
29237;DHT22;16266;50.866;4.398;2023-09-19T15:23:37;22.10;97.50
29237;DHT22;16266;50.866;4.398;2023-09-19T15:26:21;21.90;98.80
29237;DHT22;16266;50.866;4.398;2023-09-19T15:28:48;21.80;99.90
29237;DHT22;16266;50.866;4.398;2023-09-19T15:31:15;21.90;99.90
29237;DHT22;16266;50.866;4.398;2023-09-19T15:33:40;21.70;99.90
29237;DHT22;16266;50.866;4.398;2023-09-19T15:36:08;21.60;99.90
29237;DHT22;16266;50.866;4.398;2023-09-19T15:41:27;21.30;99.90
29237;DHT22;16266;50.866;4.398;2023-09-19T15:43:54;21.10;99.90
29237;DHT22;16266;50.866;4.398;2023-09-19T15:46:20;21.00;99.90
29237;DHT22;16266;50.866;4.398;2023-09-19T15:48:47;21.00;99.90
29237;DHT22;16266;50.866;4.398;2023-09-19T15:51:13;21.10;99.90
29237;DHT22;16266;50.866;4.398;2023-09-19T15:53:51;21.10;99.90
29237;DHT22;16266;50.866;4.398;2023-09-19T15:56:20;21.10;99.90
29237;DHT22;16266;50.866;4.398;2023-09-19T15:58:53;21.00;99.90
29237;DHT22;16266;50.866;4.398;2023-09-19T16:01:20;21.00;99.90
29237;DHT22;16266;50.866;4.398;2023-09-19T16:03:50;20.90;99.90
29237;DHT22;16266;50.866;4.398;2023-09-19T16:06:21;20.90;99.90
29237;DHT22;16266;50.866;4.398;2023-09-19T16:08:51;20.80;99.90
29237;DHT22;16266;50.866;4.398;2023-09-19T16:11:17;20.70;99.90
29237;DHT22;16266;50.866;4.398;2023-09-19T16:13:47;20.70;99.90
29237;DHT22;16266;50.866;4.398;2023-09-19T16:16:14;20.80;99.90
29237;DHT22;16266;50.866;4.398;2023-09-19T16:18:55;20.80;99.90
29237;DHT22;16266;50.866;4.398;2023-09-19T16:21:27;20.80;99.90
29237;DHT22;16266;50.866;4.398;2023-09-19T16:23:56;20.50;99.90
29237;DHT22;16266;50.866;4.398;2023-09-19T16:26:22;20.60;99.90
29237;DHT22;16266;50.866;4.398;2023-09-19T16:28:57;20.60;99.90
29237;DHT22;16266;50.866;4.398;2023-09-19T16:31:26;20.60;99.90